KSVE/SVE METAR and TAF weather

Enter ICAO airport designator
Station Type Date Time Source
KSVE METAR 2020/01/24 21:15 UTC NOAA

KSVE 242115Z AUTO 27011G18KT 10SM CLR 10/00 A3012 RMK AO2


Station Type Date Time Source
KSVE Decoded METAR 2020/01/24 21:15 UTC NOAA

Susanville Municipal, CA, United States (KSVE) 40-23N 120-34W
Jan 24, 2020 - 04:15 PM EST / 2020.01.24 2115 UTC
Wind: from the W (270 degrees) at 13 MPH (11 KT) gusting to 21 MPH (18 KT):0
Visibility: 10 mile(s):0
Sky conditions: clear
Temperature: 50 F (10 C)
Dew Point: 32 F (0 C)
Relative Humidity: 49%
Pressure (altimeter): 30.12 in. Hg (1019 hPa)
ob: KSVE 242115Z AUTO 27011G18KT 10SM CLR 10/00 A3012 RMK AO2
cycle: 21

Station Type Date Time Source
KSVE TAF UTC NOAA

Error!

Example: see airport list